createdAt,value
2022-10-29T00:03:52.494Z,5.3
2022-10-29T00:10:12.546Z,5.3
2022-10-29T00:16:35.554Z,4.8
2022-10-29T00:22:55.758Z,4.8
2022-10-29T00:29:18.583Z,4.9
2022-10-29T00:35:38.541Z,4.9
2022-10-29T00:42:01.596Z,3.2
2022-10-29T00:48:21.534Z,3.2
2022-10-29T00:54:44.570Z,3.8
2022-10-29T01:01:04.524Z,3.8
2022-10-29T01:07:27.541Z,4
2022-10-29T01:13:47.527Z,4
2022-10-29T01:20:10.594Z,5
2022-10-29T01:26:30.506Z,5
2022-10-29T01:32:53.790Z,3.4
2022-10-29T01:39:13.538Z,3.4
2022-10-29T01:45:36.515Z,4.1
2022-10-29T01:51:56.622Z,4.1
2022-10-29T01:58:19.513Z,5.4
2022-10-29T02:04:39.562Z,5.4
2022-10-29T02:11:02.502Z,6.5
2022-10-29T02:17:22.541Z,6.5
2022-10-29T02:23:45.493Z,4.7
2022-10-29T02:30:05.626Z,4.7
2022-10-29T02:36:28.539Z,6.7
2022-10-29T02:42:48.512Z,6.7
2022-10-29T02:49:11.594Z,4.1
2022-10-29T02:55:31.567Z,4.1
2022-10-29T03:01:54.716Z,3.6
2022-10-29T03:08:14.535Z,3.6
2022-10-29T03:14:37.579Z,3.1
2022-10-29T03:20:57.553Z,3.1
2022-10-29T03:44:21.756Z,10.2
2022-10-29T03:50:44.501Z,10.2
2022-10-29T03:57:04.568Z,10.2
2022-10-29T04:03:27.541Z,4.4
2022-10-29T04:09:47.523Z,4.4
2022-10-29T04:16:10.485Z,4.2
2022-10-29T04:28:53.555Z,7.4
2022-10-29T04:35:13.504Z,7.4
2022-10-29T04:41:36.516Z,3.3
2022-10-29T04:47:56.772Z,3.3
2022-10-29T04:54:19.487Z,5.8
2022-10-29T05:00:39.679Z,5.8
2022-10-29T05:07:02.499Z,3.1
2022-10-29T05:13:22.550Z,3.1
2022-10-29T05:19:45.519Z,4.9
2022-10-29T05:26:05.489Z,4.9
2022-10-29T05:32:28.624Z,4.9
2022-10-29T05:38:48.513Z,4.9
2022-10-29T05:45:11.521Z,4.8
2022-10-29T05:51:31.570Z,4.8
2022-10-29T05:57:54.518Z,3.5
2022-10-29T06:04:14.571Z,3.5
2022-10-29T06:10:37.487Z,5
2022-10-29T06:16:57.533Z,5
2022-10-29T06:23:20.583Z,8.3
2022-10-29T06:29:40.479Z,8.3
2022-10-29T06:36:03.625Z,4.3
2022-10-29T06:42:23.648Z,4.3
2022-10-29T06:48:46.573Z,3.5
2022-10-29T06:55:06.585Z,3.5
2022-10-29T07:01:31.557Z,3
2022-10-29T07:07:49.577Z,3
2022-10-29T07:14:12.554Z,2.6
2022-10-29T07:20:32.543Z,2.6
2022-10-29T07:26:55.572Z,3.3
2022-10-29T07:33:15.575Z,3.3
2022-10-29T07:39:38.579Z,5.7
2022-10-29T07:45:58.558Z,5.7
2022-10-29T07:52:21.549Z,2.9
2022-10-29T07:58:41.581Z,2.9
2022-10-29T08:05:04.533Z,2.2
2022-10-29T08:11:24.576Z,2.2
2022-10-29T08:17:47.551Z,4.5
2022-10-29T08:24:07.510Z,4.5
2022-10-29T08:30:30.622Z,3.5
2022-10-29T08:36:50.552Z,3.5
2022-10-29T08:43:13.652Z,1.9
2022-10-29T08:59:03.172Z,2.8
2022-10-29T09:05:26.057Z,6.4
2022-10-29T09:11:45.645Z,6.4
2022-10-29T09:18:08.554Z,6.4
2022-10-29T09:24:28.636Z,6.4
2022-10-29T09:30:51.621Z,3.8
2022-10-29T09:37:11.741Z,3.8
2022-10-29T09:43:34.504Z,4
2022-10-29T09:49:54.536Z,4
2022-10-29T09:56:17.630Z,1.7
2022-10-29T10:02:37.527Z,1.7
2022-10-29T10:09:00.641Z,1.5
2022-10-29T10:15:20.497Z,1.5
2022-10-29T10:21:43.547Z,1.4
2022-10-29T10:28:03.598Z,1.4
2022-10-29T10:34:26.592Z,3.5
2022-10-29T10:40:46.535Z,3.5
2022-10-29T10:47:09.472Z,1.5
2022-10-29T10:53:29.560Z,1.5
2022-10-29T10:59:52.495Z,3.3
2022-10-29T11:06:12.486Z,3.3
2022-10-29T11:12:35.532Z,1.9
2022-10-29T11:18:55.485Z,1.9
2022-10-29T11:25:18.567Z,2.8
2022-10-29T11:31:38.518Z,2.8
2022-10-29T11:38:01.535Z,4.1
2022-10-29T11:44:21.494Z,4.1
2022-10-29T11:50:44.502Z,4
2022-10-29T11:57:04.532Z,4
2022-10-29T12:03:27.539Z,2
2022-10-29T12:09:47.550Z,2
2022-10-29T12:16:10.491Z,2.2
2022-10-29T12:22:30.484Z,2.2
2022-10-29T12:28:53.540Z,2.3
2022-10-29T12:35:13.469Z,2.3
2022-10-29T12:41:36.505Z,2.3
2022-10-29T12:47:56.844Z,2.3
2022-10-29T12:54:19.492Z,2.4
2022-10-29T13:00:39.525Z,2.4
2022-10-29T13:07:02.507Z,3.6
2022-10-29T13:13:22.523Z,3.6
2022-10-29T13:19:45.500Z,2.4
2022-10-29T13:26:05.524Z,2.4
2022-10-29T13:32:28.569Z,3
2022-10-29T13:38:57.619Z,3
2022-10-29T13:45:11.535Z,3.7
2022-10-29T13:51:31.540Z,3.7
2022-10-29T13:57:54.628Z,1.9
2022-10-29T14:04:14.555Z,1.9
2022-10-29T14:10:37.505Z,0.9
2022-10-29T14:16:57.501Z,0.9
2022-10-29T14:39:57.762Z,5.5
2022-10-29T14:46:05.488Z,5.5
2022-10-29T14:52:28.700Z,5.6
2022-10-29T14:58:48.590Z,5.6
2022-10-29T15:05:11.509Z,1.8
2022-10-29T15:11:31.556Z,1.8
2022-10-29T15:17:54.885Z,2.4
2022-10-29T15:24:17.880Z,2.4
2022-10-29T15:30:37.698Z,1.6
2022-10-29T15:36:57.521Z,1.6
2022-10-29T15:43:20.537Z,2.7
2022-10-29T15:49:40.664Z,2.7
2022-10-29T15:56:03.559Z,3.6
2022-10-29T16:02:23.697Z,3.6
2022-10-29T16:08:46.582Z,4.5
2022-10-29T16:15:06.558Z,4.5
2022-10-29T16:21:29.491Z,3.8
2022-10-29T16:27:49.650Z,3.8
2022-10-29T16:34:12.550Z,3.5
2022-10-29T16:40:32.483Z,3.5
2022-10-29T16:46:55.667Z,4
2022-10-29T16:53:15.558Z,4
2022-10-29T16:59:38.546Z,4.1
2022-10-29T17:05:58.660Z,4.1
2022-10-29T17:12:22.028Z,4.1
2022-10-29T17:18:41.955Z,4.1
2022-10-29T17:25:04.769Z,3.2
2022-10-29T17:31:24.830Z,3.2
2022-10-29T17:37:47.520Z,2.4
2022-10-29T17:44:07.575Z,2.4
2022-10-29T17:50:30.526Z,2.9
2022-10-29T17:56:50.629Z,2.9
2022-10-29T18:03:13.657Z,4.2
2022-10-29T18:09:33.541Z,4.2
2022-10-29T18:15:56.545Z,4.7
2022-10-29T18:22:16.686Z,4.7
2022-10-29T18:28:39.569Z,2.6
2022-10-29T18:34:59.531Z,2.6
2022-10-29T18:41:22.560Z,4.6
2022-10-29T18:47:42.616Z,4.6
2022-10-29T18:54:05.572Z,2.9
2022-10-29T19:00:25.477Z,2.9
2022-10-29T19:06:48.654Z,3.3
2022-10-29T19:13:08.622Z,3.3
2022-10-29T19:19:31.757Z,4.3
2022-10-29T19:43:23.432Z,2.2
2022-10-29T19:49:43.500Z,2.2
2022-10-29T19:56:06.516Z,4.2
2022-10-29T20:02:26.547Z,4.2
2022-10-29T20:08:49.472Z,2.7
2022-10-29T20:15:09.674Z,2.7
2022-10-29T20:21:32.497Z,2.9
2022-10-29T20:27:52.513Z,2.9
2022-10-29T20:34:15.481Z,3.7
2022-10-29T20:40:35.491Z,3.7
2022-10-29T20:46:58.552Z,2.2
2022-10-29T20:53:18.474Z,2.2
2022-10-29T20:59:41.607Z,4.3
2022-10-29T21:06:01.466Z,4.3
2022-10-29T21:12:24.564Z,5.5
2022-10-29T21:18:44.549Z,5.5
2022-10-29T21:25:07.545Z,4.2
2022-10-29T21:31:27.533Z,4.2
2022-10-29T21:37:50.501Z,3.3
2022-10-29T21:44:10.489Z,3.3
2022-10-29T21:50:33.525Z,3.4
2022-10-29T21:56:53.505Z,3.4
2022-10-29T22:22:27.564Z,7.7
2022-10-29T22:28:47.460Z,7.7
2022-10-29T22:35:10.583Z,7.7
2022-10-29T22:41:30.515Z,7.7
2022-10-29T22:47:53.529Z,3.4
2022-10-29T22:54:13.513Z,3.4
2022-10-29T23:00:36.582Z,1.6
2022-10-29T23:07:00.855Z,1.6
2022-10-29T23:13:19.498Z,4.9
2022-10-29T23:19:39.554Z,4.9
2022-10-29T23:26:02.532Z,2.5
2022-10-29T23:32:22.538Z,2.5
2022-10-29T23:38:45.495Z,3.2
2022-10-29T23:45:07.624Z,3.2
2022-10-29T23:51:28.574Z,2.6
2022-10-29T23:57:48.562Z,2.6
